sensor_id;sensor_type;location;lat;lon;timestamp;P1;P2;P0
14880;PMS7003;7533;51.278;12.588;2023-07-20T00:00:15;0.00;0.00;0.00
14880;PMS7003;7533;51.278;12.588;2023-07-20T00:05:18;0.00;0.00;0.00
14880;PMS7003;7533;51.278;12.588;2023-07-20T00:10:22;0.00;0.00;0.00
14880;PMS7003;7533;51.278;12.588;2023-07-20T00:15:27;0.00;0.00;0.00
14880;PMS7003;7533;51.278;12.588;2023-07-20T00:20:29;0.00;0.00;0.00
14880;PMS7003;7533;51.278;12.588;2023-07-20T00:25:33;0.00;0.00;0.00
14880;PMS7003;7533;51.278;12.588;2023-07-20T00:30:37;0.00;0.00;0.00
14880;PMS7003;7533;51.278;12.588;2023-07-20T00:35:40;0.00;0.00;0.00
14880;PMS7003;7533;51.278;12.588;2023-07-20T00:40:43;0.00;0.00;0.00
14880;PMS7003;7533;51.278;12.588;2023-07-20T00:45:48;0.50;0.50;0.00
14880;PMS7003;7533;51.278;12.588;2023-07-20T00:50:52;0.00;0.00;0.00
14880;PMS7003;7533;51.278;12.588;2023-07-20T00:55:54;0.00;0.00;0.00
14880;PMS7003;7533;51.278;12.588;2023-07-20T01:00:59;0.00;0.00;0.00
14880;PMS7003;7533;51.278;12.588;2023-07-20T01:06:04;0.00;0.00;0.00
14880;PMS7003;7533;51.278;12.588;2023-07-20T01:11:27;0.00;0.00;0.00
14880;PMS7003;7533;51.278;12.588;2023-07-20T01:16:37;0.00;0.00;0.00
14880;PMS7003;7533;51.278;12.588;2023-07-20T01:21:41;0.00;0.00;0.00
14880;PMS7003;7533;51.278;12.588;2023-07-20T01:26:59;0.00;0.00;0.00
14880;PMS7003;7533;51.278;12.588;2023-07-20T01:32:17;0.00;0.00;0.00
14880;PMS7003;7533;51.278;12.588;2023-07-20T01:37:26;0.50;0.25;0.00
14880;PMS7003;7533;51.278;12.588;2023-07-20T01:42:31;0.00;0.00;0.00
14880;PMS7003;7533;51.278;12.588;2023-07-20T01:47:35;0.00;0.00;0.00
14880;PMS7003;7533;51.278;12.588;2023-07-20T01:52:38;0.00;0.00;0.00
14880;PMS7003;7533;51.278;12.588;2023-07-20T01:57:41;0.00;0.00;0.00
14880;PMS7003;7533;51.278;12.588;2023-07-20T02:02:45;0.50;0.50;0.00
14880;PMS7003;7533;51.278;12.588;2023-07-20T02:07:48;0.00;0.00;0.00
14880;PMS7003;7533;51.278;12.588;2023-07-20T02:12:53;0.00;0.00;0.00
14880;PMS7003;7533;51.278;12.588;2023-07-20T02:17:58;0.00;0.00;0.00
14880;PMS7003;7533;51.278;12.588;2023-07-20T02:23:01;0.00;0.00;0.00
14880;PMS7003;7533;51.278;12.588;2023-07-20T02:28:04;0.00;0.00;0.00
14880;PMS7003;7533;51.278;12.588;2023-07-20T02:33:09;0.00;0.00;0.00
14880;PMS7003;7533;51.278;12.588;2023-07-20T02:38:11;0.00;0.00;0.00
14880;PMS7003;7533;51.278;12.588;2023-07-20T02:43:14;0.00;0.00;0.00
14880;PMS7003;7533;51.278;12.588;2023-07-20T02:48:20;0.00;0.00;0.00
14880;PMS7003;7533;51.278;12.588;2023-07-20T02:53:23;0.00;0.00;0.00
14880;PMS7003;7533;51.278;12.588;2023-07-20T02:58:26;0.00;0.00;0.00
14880;PMS7003;7533;51.278;12.588;2023-07-20T03:03:30;0.00;0.00;0.00
14880;PMS7003;7533;51.278;12.588;2023-07-20T03:08:33;0.00;0.00;0.00
14880;PMS7003;7533;51.278;12.588;2023-07-20T03:13:37;0.00;0.00;0.00
14880;PMS7003;7533;51.278;12.588;2023-07-20T03:18:41;0.00;0.00;0.00
14880;PMS7003;7533;51.278;12.588;2023-07-20T03:23:44;0.00;0.00;0.00
14880;PMS7003;7533;51.278;12.588;2023-07-20T03:28:47;0.00;0.00;0.00
14880;PMS7003;7533;51.278;12.588;2023-07-20T03:33:52;0.00;0.00;0.00
14880;PMS7003;7533;51.278;12.588;2023-07-20T03:38:55;0.00;0.00;0.00
14880;PMS7003;7533;51.278;12.588;2023-07-20T03:43:58;0.00;0.00;0.00
14880;PMS7003;7533;51.278;12.588;2023-07-20T03:49:02;0.00;0.00;0.00
14880;PMS7003;7533;51.278;12.588;2023-07-20T03:54:07;0.00;0.00;0.00
14880;PMS7003;7533;51.278;12.588;2023-07-20T03:59:11;0.00;0.00;0.00
14880;PMS7003;7533;51.278;12.588;2023-07-20T04:04:15;0.75;0.75;0.00
14880;PMS7003;7533;51.278;12.588;2023-07-20T04:09:19;3.75;2.00;0.50
14880;PMS7003;7533;51.278;12.588;2023-07-20T04:14:24;2.00;1.50;0.50
14880;PMS7003;7533;51.278;12.588;2023-07-20T04:19:29;2.00;2.00;0.50
14880;PMS7003;7533;51.278;12.588;2023-07-20T04:24:32;3.50;3.50;2.00
14880;PMS7003;7533;51.278;12.588;2023-07-20T04:29:35;2.00;1.50;1.25
14880;PMS7003;7533;51.278;12.588;2023-07-20T04:34:39;3.50;3.25;2.00
14880;PMS7003;7533;51.278;12.588;2023-07-20T04:39:42;2.25;2.25;0.75
14880;PMS7003;7533;51.278;12.588;2023-07-20T04:44:45;1.50;1.50;0.75
14880;PMS7003;7533;51.278;12.588;2023-07-20T04:49:50;1.75;1.75;0.75
14880;PMS7003;7533;51.278;12.588;2023-07-20T04:54:55;2.00;2.00;1.00
14880;PMS7003;7533;51.278;12.588;2023-07-20T04:59:58;3.75;3.75;2.00
14880;PMS7003;7533;51.278;12.588;2023-07-20T05:05:03;2.00;2.00;1.00
14880;PMS7003;7533;51.278;12.588;2023-07-20T05:10:07;3.00;3.00;1.00
14880;PMS7003;7533;51.278;12.588;2023-07-20T05:15:10;3.25;2.00;1.25
14880;PMS7003;7533;51.278;12.588;2023-07-20T05:20:16;5.50;3.00;1.50
14880;PMS7003;7533;51.278;12.588;2023-07-20T05:25:19;4.00;3.00;1.00
14880;PMS7003;7533;51.278;12.588;2023-07-20T05:30:24;5.00;4.00;2.00
14880;PMS7003;7533;51.278;12.588;2023-07-20T05:35:28;1.50;1.50;1.00
14880;PMS7003;7533;51.278;12.588;2023-07-20T05:40:31;4.50;3.25;1.75
14880;PMS7003;7533;51.278;12.588;2023-07-20T05:45:34;2.00;2.00;1.00
14880;PMS7003;7533;51.278;12.588;2023-07-20T05:50:38;2.25;2.25;1.75
14880;PMS7003;7533;51.278;12.588;2023-07-20T05:55:44;2.75;2.75;1.00
14880;PMS7003;7533;51.278;12.588;2023-07-20T06:00:47;2.00;2.00;1.00
14880;PMS7003;7533;51.278;12.588;2023-07-20T06:05:52;4.00;3.50;1.50
14880;PMS7003;7533;51.278;12.588;2023-07-20T06:11:00;2.00;2.00;1.00
14880;PMS7003;7533;51.278;12.588;2023-07-20T06:16:03;1.00;1.00;1.00
14880;PMS7003;7533;51.278;12.588;2023-07-20T06:21:07;2.75;2.75;1.25
14880;PMS7003;7533;51.278;12.588;2023-07-20T06:26:10;2.25;2.25;1.00
14880;PMS7003;7533;51.278;12.588;2023-07-20T06:31:13;1.00;1.00;0.25
14880;PMS7003;7533;51.278;12.588;2023-07-20T06:36:18;2.75;1.50;1.00
14880;PMS7003;7533;51.278;12.588;2023-07-20T06:41:21;2.50;2.50;1.00
14880;PMS7003;7533;51.278;12.588;2023-07-20T06:46:27;1.25;1.25;0.00
14880;PMS7003;7533;51.278;12.588;2023-07-20T06:51:32;1.75;1.00;0.00
14880;PMS7003;7533;51.278;12.588;2023-07-20T06:56:34;1.00;1.00;0.75
14880;PMS7003;7533;51.278;12.588;2023-07-20T07:01:38;1.00;1.00;1.00
14880;PMS7003;7533;51.278;12.588;2023-07-20T07:06:42;0.75;0.75;0.75
14880;PMS7003;7533;51.278;12.588;2023-07-20T07:11:45;2.00;1.00;0.25
14880;PMS7003;7533;51.278;12.588;2023-07-20T07:16:48;1.50;1.50;0.00
14880;PMS7003;7533;51.278;12.588;2023-07-20T07:21:56;2.00;1.00;0.00
14880;PMS7003;7533;51.278;12.588;2023-07-20T07:27:01;2.00;1.00;1.00
14880;PMS7003;7533;51.278;12.588;2023-07-20T07:32:05;1.25;1.00;0.25
14880;PMS7003;7533;51.278;12.588;2023-07-20T07:37:10;2.75;2.75;1.50
14880;PMS7003;7533;51.278;12.588;2023-07-20T07:42:13;1.00;1.00;0.50
14880;PMS7003;7533;51.278;12.588;2023-07-20T07:47:16;1.25;1.25;0.75
14880;PMS7003;7533;51.278;12.588;2023-07-20T07:52:20;2.00;2.00;1.00
14880;PMS7003;7533;51.278;12.588;2023-07-20T07:57:23;1.50;1.50;1.00
14880;PMS7003;7533;51.278;12.588;2023-07-20T08:02:26;1.00;1.00;0.75
14880;PMS7003;7533;51.278;12.588;2023-07-20T08:07:30;3.50;2.50;2.00
14880;PMS7003;7533;51.278;12.588;2023-07-20T08:12:33;3.50;3.00;1.75
14880;PMS7003;7533;51.278;12.588;2023-07-20T08:17:36;4.00;3.25;2.00
14880;PMS7003;7533;51.278;12.588;2023-07-20T08:22:41;3.75;2.75;1.00
14880;PMS7003;7533;51.278;12.588;2023-07-20T08:27:44;3.00;2.00;1.50
14880;PMS7003;7533;51.278;12.588;2023-07-20T08:32:47;3.50;3.50;1.00
14880;PMS7003;7533;51.278;12.588;2023-07-20T08:37:53;3.50;3.50;2.00
14880;PMS7003;7533;51.278;12.588;2023-07-20T08:42:59;4.75;2.75;1.75
14880;PMS7003;7533;51.278;12.588;2023-07-20T08:48:04;4.00;4.00;2.00
14880;PMS7003;7533;51.278;12.588;2023-07-20T08:53:09;5.75;4.75;2.25
14880;PMS7003;7533;51.278;12.588;2023-07-20T08:58:13;5.50;4.50;3.00
14880;PMS7003;7533;51.278;12.588;2023-07-20T09:03:17;6.25;6.00;3.00
14880;PMS7003;7533;51.278;12.588;2023-07-20T09:08:26;6.50;6.00;4.00
14880;PMS7003;7533;51.278;12.588;2023-07-20T09:13:29;5.50;5.50;3.00
14880;PMS7003;7533;51.278;12.588;2023-07-20T09:18:43;7.25;4.75;2.00
14880;PMS7003;7533;51.278;12.588;2023-07-20T09:23:48;4.00;4.00;2.25
14880;PMS7003;7533;51.278;12.588;2023-07-20T09:28:54;4.00;4.00;2.25
14880;PMS7003;7533;51.278;12.588;2023-07-20T09:33:57;3.50;3.50;1.00
14880;PMS7003;7533;51.278;12.588;2023-07-20T09:39:03;4.00;3.75;2.00
14880;PMS7003;7533;51.278;12.588;2023-07-20T09:44:07;4.50;3.00;1.75
14880;PMS7003;7533;51.278;12.588;2023-07-20T09:49:14;7.25;4.50;2.00
14880;PMS7003;7533;51.278;12.588;2023-07-20T09:54:24;4.75;2.50;1.75
14880;PMS7003;7533;51.278;12.588;2023-07-20T09:59:29;3.00;2.00;1.00
14880;PMS7003;7533;51.278;12.588;2023-07-20T10:04:32;4.25;3.75;2.00
14880;PMS7003;7533;51.278;12.588;2023-07-20T10:09:39;3.25;3.25;1.00
14880;PMS7003;7533;51.278;12.588;2023-07-20T10:14:44;3.50;3.50;2.75
14880;PMS7003;7533;51.278;12.588;2023-07-20T10:20:00;6.25;3.75;2.25
14880;PMS7003;7533;51.278;12.588;2023-07-20T10:25:09;5.25;3.50;1.75
14880;PMS7003;7533;51.278;12.588;2023-07-20T10:30:12;3.75;3.25;2.00
14880;PMS7003;7533;51.278;12.588;2023-07-20T10:35:17;4.00;4.00;2.25
14880;PMS7003;7533;51.278;12.588;2023-07-20T10:40:27;4.25;4.25;2.00
14880;PMS7003;7533;51.278;12.588;2023-07-20T10:45:48;2.00;2.00;1.00
14880;PMS7003;7533;51.278;12.588;2023-07-20T10:51:11;3.50;3.25;2.00
14880;PMS7003;7533;51.278;12.588;2023-07-20T10:56:19;5.50;3.00;1.00
14880;PMS7003;7533;51.278;12.588;2023-07-20T11:01:27;5.25;4.00;2.00
14880;PMS7003;7533;51.278;12.588;2023-07-20T11:06:31;3.50;3.50;2.00
14880;PMS7003;7533;51.278;12.588;2023-07-20T11:11:36;5.00;3.25;2.25
14880;PMS7003;7533;51.278;12.588;2023-07-20T11:16:42;3.75;2.75;1.75
14880;PMS7003;7533;51.278;12.588;2023-07-20T11:21:46;4.25;3.00;1.00
14880;PMS7003;7533;51.278;12.588;2023-07-20T11:27:04;1.50;1.50;1.00
14880;PMS7003;7533;51.278;12.588;2023-07-20T11:32:08;2.75;1.75;1.00
14880;PMS7003;7533;51.278;12.588;2023-07-20T11:37:13;2.00;1.00;0.00
14880;PMS7003;7533;51.278;12.588;2023-07-20T11:42:18;3.25;2.00;1.00
14880;PMS7003;7533;51.278;12.588;2023-07-20T11:47:28;0.75;0.75;0.00
14880;PMS7003;7533;51.278;12.588;2023-07-20T11:52:31;2.25;2.25;1.00
14880;PMS7003;7533;51.278;12.588;2023-07-20T11:57:37;1.00;1.00;0.00
14880;PMS7003;7533;51.278;12.588;2023-07-20T12:02:40;1.75;0.25;0.00
14880;PMS7003;7533;51.278;12.588;2023-07-20T12:07:43;0.00;0.00;0.00
14880;PMS7003;7533;51.278;12.588;2023-07-20T12:12:48;1.00;1.00;0.00
14880;PMS7003;7533;51.278;12.588;2023-07-20T12:17:51;1.00;1.00;0.75
14880;PMS7003;7533;51.278;12.588;2023-07-20T12:22:58;1.00;1.00;0.00
14880;PMS7003;7533;51.278;12.588;2023-07-20T12:28:05;0.25;0.25;0.00
14880;PMS7003;7533;51.278;12.588;2023-07-20T12:33:09;1.00;1.00;0.00
14880;PMS7003;7533;51.278;12.588;2023-07-20T12:38:13;1.00;1.00;0.00
14880;PMS7003;7533;51.278;12.588;2023-07-20T12:43:17;2.00;1.25;0.00
14880;PMS7003;7533;51.278;12.588;2023-07-20T12:48:20;1.00;1.00;0.50
14880;PMS7003;7533;51.278;12.588;2023-07-20T12:53:24;1.50;1.00;0.50
14880;PMS7003;7533;51.278;12.588;2023-07-20T12:58:28;2.50;2.50;1.00
14880;PMS7003;7533;51.278;12.588;2023-07-20T13:03:31;0.50;0.50;0.00
14880;PMS7003;7533;51.278;12.588;2023-07-20T13:08:35;1.00;1.00;0.00
14880;PMS7003;7533;51.278;12.588;2023-07-20T13:13:39;1.00;1.00;0.00
14880;PMS7003;7533;51.278;12.588;2023-07-20T13:18:42;0.75;0.75;0.75
14880;PMS7003;7533;51.278;12.588;2023-07-20T13:23:45;0.00;0.00;0.00
14880;PMS7003;7533;51.278;12.588;2023-07-20T13:28:49;1.00;0.75;0.00
14880;PMS7003;7533;51.278;12.588;2023-07-20T13:33:52;0.50;0.50;0.00
14880;PMS7003;7533;51.278;12.588;2023-07-20T13:39:00;0.50;0.50;0.00
14880;PMS7003;7533;51.278;12.588;2023-07-20T13:44:05;0.25;0.25;0.00
14880;PMS7003;7533;51.278;12.588;2023-07-20T13:49:08;0.00;0.00;0.00
14880;PMS7003;7533;51.278;12.588;2023-07-20T13:54:23;0.00;0.00;0.00
14880;PMS7003;7533;51.278;12.588;2023-07-20T13:59:29;0.50;0.00;0.00
14880;PMS7003;7533;51.278;12.588;2023-07-20T14:04:33;0.00;0.00;0.00
14880;PMS7003;7533;51.278;12.588;2023-07-20T14:09:36;0.00;0.00;0.00
14880;PMS7003;7533;51.278;12.588;2023-07-20T14:15:01;0.00;0.00;0.00
14880;PMS7003;7533;51.278;12.588;2023-07-20T14:20:05;0.00;0.00;0.00
14880;PMS7003;7533;51.278;12.588;2023-07-20T14:25:23;0.00;0.00;0.00
14880;PMS7003;7533;51.278;12.588;2023-07-20T14:30:27;0.00;0.00;0.00
14880;PMS7003;7533;51.278;12.588;2023-07-20T14:35:40;0.00;0.00;0.00
14880;PMS7003;7533;51.278;12.588;2023-07-20T14:40:43;0.00;0.00;0.00
14880;PMS7003;7533;51.278;12.588;2023-07-20T14:45:48;0.50;0.50;0.00
14880;PMS7003;7533;51.278;12.588;2023-07-20T14:50:51;0.00;0.00;0.00
14880;PMS7003;7533;51.278;12.588;2023-07-20T14:56:06;0.00;0.00;0.00
14880;PMS7003;7533;51.278;12.588;2023-07-20T15:01:10;0.00;0.00;0.00
14880;PMS7003;7533;51.278;12.588;2023-07-20T15:06:13;0.00;0.00;0.00
14880;PMS7003;7533;51.278;12.588;2023-07-20T15:11:16;0.00;0.00;0.00
14880;PMS7003;7533;51.278;12.588;2023-07-20T15:16:20;0.00;0.00;0.00
14880;PMS7003;7533;51.278;12.588;2023-07-20T15:21:23;1.25;1.25;0.00
14880;PMS7003;7533;51.278;12.588;2023-07-20T15:26:31;0.00;0.00;0.00
14880;PMS7003;7533;51.278;12.588;2023-07-20T15:31:36;0.00;0.00;0.00
14880;PMS7003;7533;51.278;12.588;2023-07-20T15:36:42;0.00;0.00;0.00
14880;PMS7003;7533;51.278;12.588;2023-07-20T15:41:46;1.00;0.00;0.00
14880;PMS7003;7533;51.278;12.588;2023-07-20T15:46:52;3.50;0.50;0.00
14880;PMS7003;7533;51.278;12.588;2023-07-20T15:51:55;0.00;0.00;0.00
14880;PMS7003;7533;51.278;12.588;2023-07-20T15:56:58;0.25;0.00;0.00
14880;PMS7003;7533;51.278;12.588;2023-07-20T16:02:03;0.00;0.00;0.00
14880;PMS7003;7533;51.278;12.588;2023-07-20T16:07:06;0.00;0.00;0.00
14880;PMS7003;7533;51.278;12.588;2023-07-20T16:12:10;0.00;0.00;0.00
14880;PMS7003;7533;51.278;12.588;2023-07-20T16:17:14;0.00;0.00;0.00
14880;PMS7003;7533;51.278;12.588;2023-07-20T16:22:17;0.00;0.00;0.00
14880;PMS7003;7533;51.278;12.588;2023-07-20T16:27:20;0.00;0.00;0.00
14880;PMS7003;7533;51.278;12.588;2023-07-20T16:32:24;1.00;1.00;0.00
14880;PMS7003;7533;51.278;12.588;2023-07-20T16:37:27;0.00;0.00;0.00
14880;PMS7003;7533;51.278;12.588;2023-07-20T16:42:32;1.25;0.00;0.00
14880;PMS7003;7533;51.278;12.588;2023-07-20T16:47:40;0.00;0.00;0.00
14880;PMS7003;7533;51.278;12.588;2023-07-20T16:52:43;0.00;0.00;0.00
14880;PMS7003;7533;51.278;12.588;2023-07-20T16:57:46;0.00;0.00;0.00
14880;PMS7003;7533;51.278;12.588;2023-07-20T17:02:50;0.00;0.00;0.00
14880;PMS7003;7533;51.278;12.588;2023-07-20T17:07:53;0.00;0.00;0.00
14880;PMS7003;7533;51.278;12.588;2023-07-20T17:12:57;0.00;0.00;0.00
14880;PMS7003;7533;51.278;12.588;2023-07-20T17:18:01;0.25;0.25;0.00
14880;PMS7003;7533;51.278;12.588;2023-07-20T17:23:05;0.75;0.00;0.00
14880;PMS7003;7533;51.278;12.588;2023-07-20T17:28:08;0.00;0.00;0.00
14880;PMS7003;7533;51.278;12.588;2023-07-20T17:33:15;0.25;0.00;0.00
14880;PMS7003;7533;51.278;12.588;2023-07-20T17:38:19;0.00;0.00;0.00
14880;PMS7003;7533;51.278;12.588;2023-07-20T17:43:25;0.00;0.00;0.00
14880;PMS7003;7533;51.278;12.588;2023-07-20T17:48:29;0.00;0.00;0.00
14880;PMS7003;7533;51.278;12.588;2023-07-20T17:53:32;0.00;0.00;0.00
14880;PMS7003;7533;51.278;12.588;2023-07-20T17:58:36;0.00;0.00;0.00
14880;PMS7003;7533;51.278;12.588;2023-07-20T18:03:41;0.00;0.00;0.00
14880;PMS7003;7533;51.278;12.588;2023-07-20T18:08:44;0.00;0.00;0.00
14880;PMS7003;7533;51.278;12.588;2023-07-20T18:13:47;0.00;0.00;0.00
14880;PMS7003;7533;51.278;12.588;2023-07-20T18:18:51;0.00;0.00;0.00
14880;PMS7003;7533;51.278;12.588;2023-07-20T18:23:54;0.00;0.00;0.00
14880;PMS7003;7533;51.278;12.588;2023-07-20T18:28:57;0.00;0.00;0.00
14880;PMS7003;7533;51.278;12.588;2023-07-20T18:34:01;0.00;0.00;0.00
14880;PMS7003;7533;51.278;12.588;2023-07-20T18:39:04;0.00;0.00;0.00
14880;PMS7003;7533;51.278;12.588;2023-07-20T18:44:07;0.00;0.00;0.00
14880;PMS7003;7533;51.278;12.588;2023-07-20T18:49:12;0.00;0.00;0.00
14880;PMS7003;7533;51.278;12.588;2023-07-20T18:54:15;0.00;0.00;0.00
14880;PMS7003;7533;51.278;12.588;2023-07-20T18:59:18;0.00;0.00;0.00
14880;PMS7003;7533;51.278;12.588;2023-07-20T19:04:25;0.00;0.00;0.00
14880;PMS7003;7533;51.278;12.588;2023-07-20T19:09:28;0.00;0.00;0.00
14880;PMS7003;7533;51.278;12.588;2023-07-20T19:14:31;0.00;0.00;0.00
14880;PMS7003;7533;51.278;12.588;2023-07-20T19:19:36;0.00;0.00;0.00
14880;PMS7003;7533;51.278;12.588;2023-07-20T19:24:39;0.00;0.00;0.00
14880;PMS7003;7533;51.278;12.588;2023-07-20T19:29:42;0.00;0.00;0.00
14880;PMS7003;7533;51.278;12.588;2023-07-20T19:34:47;1.00;0.00;0.00
14880;PMS7003;7533;51.278;12.588;2023-07-20T19:39:50;0.00;0.00;0.00
14880;PMS7003;7533;51.278;12.588;2023-07-20T19:44:53;0.25;0.25;0.00
14880;PMS7003;7533;51.278;12.588;2023-07-20T19:49:57;0.75;0.00;0.00
14880;PMS7003;7533;51.278;12.588;2023-07-20T19:55:00;0.00;0.00;0.00
14880;PMS7003;7533;51.278;12.588;2023-07-20T20:00:04;0.00;0.00;0.00
14880;PMS7003;7533;51.278;12.588;2023-07-20T20:05:14;0.00;0.00;0.00
14880;PMS7003;7533;51.278;12.588;2023-07-20T20:10:22;0.00;0.00;0.00
14880;PMS7003;7533;51.278;12.588;2023-07-20T20:15:27;0.00;0.00;0.00
14880;PMS7003;7533;51.278;12.588;2023-07-20T20:20:31;0.00;0.00;0.00
14880;PMS7003;7533;51.278;12.588;2023-07-20T20:25:35;0.00;0.00;0.00
14880;PMS7003;7533;51.278;12.588;2023-07-20T20:30:37;0.00;0.00;0.00
14880;PMS7003;7533;51.278;12.588;2023-07-20T20:35:42;0.00;0.00;0.00
14880;PMS7003;7533;51.278;12.588;2023-07-20T20:40:46;0.00;0.00;0.00
14880;PMS7003;7533;51.278;12.588;2023-07-20T20:45:49;0.50;0.00;0.00
14880;PMS7003;7533;51.278;12.588;2023-07-20T20:50:54;0.00;0.00;0.00
14880;PMS7003;7533;51.278;12.588;2023-07-20T20:56:01;0.25;0.00;0.00
14880;PMS7003;7533;51.278;12.588;2023-07-20T21:01:04;0.00;0.00;0.00
14880;PMS7003;7533;51.278;12.588;2023-07-20T21:06:13;0.00;0.00;0.00
14880;PMS7003;7533;51.278;12.588;2023-07-20T21:11:16;0.00;0.00;0.00
14880;PMS7003;7533;51.278;12.588;2023-07-20T21:16:18;0.00;0.00;0.00
14880;PMS7003;7533;51.278;12.588;2023-07-20T21:21:23;0.00;0.00;0.00
14880;PMS7003;7533;51.278;12.588;2023-07-20T21:26:27;0.00;0.00;0.00
14880;PMS7003;7533;51.278;12.588;2023-07-20T21:31:30;0.00;0.00;0.00
14880;PMS7003;7533;51.278;12.588;2023-07-20T21:36:34;0.00;0.00;0.00
14880;PMS7003;7533;51.278;12.588;2023-07-20T21:41:37;0.00;0.00;0.00
14880;PMS7003;7533;51.278;12.588;2023-07-20T21:46:41;0.00;0.00;0.00
14880;PMS7003;7533;51.278;12.588;2023-07-20T21:51:45;0.00;0.00;0.00
14880;PMS7003;7533;51.278;12.588;2023-07-20T21:56:48;0.00;0.00;0.00
14880;PMS7003;7533;51.278;12.588;2023-07-20T22:01:50;0.00;0.00;0.00
14880;PMS7003;7533;51.278;12.588;2023-07-20T22:07:02;0.00;0.00;0.00
14880;PMS7003;7533;51.278;12.588;2023-07-20T22:12:14;0.25;0.00;0.00
14880;PMS7003;7533;51.278;12.588;2023-07-20T22:17:18;0.00;0.00;0.00
14880;PMS7003;7533;51.278;12.588;2023-07-20T22:22:23;0.50;0.50;0.00
14880;PMS7003;7533;51.278;12.588;2023-07-20T22:27:26;0.00;0.00;0.00
14880;PMS7003;7533;51.278;12.588;2023-07-20T22:32:29;0.00;0.00;0.00
14880;PMS7003;7533;51.278;12.588;2023-07-20T22:37:33;0.00;0.00;0.00
14880;PMS7003;7533;51.278;12.588;2023-07-20T22:42:36;0.50;0.50;0.00
14880;PMS7003;7533;51.278;12.588;2023-07-20T22:47:40;0.00;0.00;0.00
14880;PMS7003;7533;51.278;12.588;2023-07-20T22:52:44;0.00;0.00;0.00
14880;PMS7003;7533;51.278;12.588;2023-07-20T22:57:47;0.50;0.00;0.00
14880;PMS7003;7533;51.278;12.588;2023-07-20T23:02:53;0.00;0.00;0.00
14880;PMS7003;7533;51.278;12.588;2023-07-20T23:07:58;0.00;0.00;0.00
14880;PMS7003;7533;51.278;12.588;2023-07-20T23:13:01;0.00;0.00;0.00
14880;PMS7003;7533;51.278;12.588;2023-07-20T23:18:04;0.00;0.00;0.00
14880;PMS7003;7533;51.278;12.588;2023-07-20T23:23:08;0.00;0.00;0.00
14880;PMS7003;7533;51.278;12.588;2023-07-20T23:28:12;0.00;0.00;0.00
14880;PMS7003;7533;51.278;12.588;2023-07-20T23:33:16;0.75;0.75;0.00
14880;PMS7003;7533;51.278;12.588;2023-07-20T23:38:24;0.00;0.00;0.00
14880;PMS7003;7533;51.278;12.588;2023-07-20T23:43:27;0.00;0.00;0.00
14880;PMS7003;7533;51.278;12.588;2023-07-20T23:48:30;0.00;0.00;0.00
14880;PMS7003;7533;51.278;12.588;2023-07-20T23:53:43;0.00;0.00;0.00
14880;PMS7003;7533;51.278;12.588;2023-07-20T23:58:46;0.00;0.00;0.00
